createdAt,value
2022-11-03T00:00:02.956Z,5.33
2022-11-03T00:01:02.944Z,5.35
2022-11-03T00:02:03.146Z,5.38
2022-11-03T00:03:03.142Z,5.23
2022-11-03T00:04:02.927Z,5.32
2022-11-03T00:05:02.886Z,5.23
2022-11-03T00:06:02.871Z,5.30
2022-11-03T00:07:02.861Z,5.24
2022-11-03T00:08:02.878Z,5.15
2022-11-03T00:09:02.834Z,5.22
2022-11-03T00:10:02.851Z,5.26
2022-11-03T00:11:02.813Z,5.17
2022-11-03T00:12:02.801Z,5.14
2022-11-03T00:13:02.939Z,5.09
2022-11-03T00:14:02.773Z,5.06
2022-11-03T00:15:02.767Z,5.19
2022-11-03T00:16:02.756Z,5.11
2022-11-03T00:17:02.741Z,5.02
2022-11-03T00:18:02.722Z,5.14
2022-11-03T00:19:02.710Z,4.88
2022-11-03T00:20:02.691Z,4.99
2022-11-03T00:21:02.678Z,5.06
2022-11-03T00:22:02.665Z,4.96
2022-11-03T00:23:02.773Z,4.97
2022-11-03T00:24:02.638Z,4.94
2022-11-03T00:25:02.629Z,4.96
2022-11-03T00:26:02.628Z,4.87
2022-11-03T00:27:02.603Z,4.91
2022-11-03T00:29:02.575Z,4.83
2022-11-03T00:30:02.556Z,4.83
2022-11-03T00:31:02.546Z,4.90
2022-11-03T00:32:02.532Z,4.75
2022-11-03T00:33:02.697Z,4.68
2022-11-03T00:34:02.503Z,4.77
2022-11-03T00:35:02.501Z,4.80
2022-11-03T00:36:02.479Z,4.74
2022-11-03T00:37:02.468Z,4.79
2022-11-03T00:38:02.451Z,4.75
2022-11-03T00:39:02.448Z,4.71
2022-11-03T00:40:02.428Z,4.74
2022-11-03T00:41:02.415Z,4.64
2022-11-03T00:42:02.419Z,4.56
2022-11-03T00:43:02.419Z,4.72
2022-11-03T00:44:02.371Z,4.64
2022-11-03T00:45:02.367Z,4.65
2022-11-03T00:46:02.344Z,4.67
2022-11-03T00:47:02.335Z,4.64
2022-11-03T00:48:02.316Z,4.65
2022-11-03T00:49:02.305Z,4.62
2022-11-03T00:50:02.286Z,4.62
2022-11-03T00:51:02.285Z,4.54
2022-11-03T00:52:02.261Z,4.65
2022-11-03T00:53:02.260Z,4.57
2022-11-03T00:54:02.240Z,4.53
2022-11-03T00:55:02.234Z,4.47
2022-11-03T00:56:02.214Z,4.53
2022-11-03T00:57:02.202Z,4.53
2022-11-03T00:58:02.212Z,4.57
2022-11-03T00:59:02.170Z,4.44
2022-11-03T01:00:02.164Z,4.43
2022-11-03T01:01:02.194Z,4.54
2022-11-03T01:02:02.304Z,4.46
2022-11-03T01:03:02.122Z,4.39
2022-11-03T01:04:02.104Z,4.32
2022-11-03T01:05:02.097Z,4.32
2022-11-03T01:06:02.074Z,4.46
2022-11-03T01:07:02.077Z,4.34
2022-11-03T01:08:02.047Z,4.29
2022-11-03T01:09:02.037Z,4.25
2022-11-03T01:10:02.019Z,4.26
2022-11-03T01:11:02.005Z,4.31
2022-11-03T01:12:01.997Z,4.31
2022-11-03T01:13:01.983Z,4.47
2022-11-03T01:14:01.991Z,4.32
2022-11-03T01:15:01.966Z,4.35
2022-11-03T01:16:01.951Z,4.36
2022-11-03T01:17:01.938Z,4.34
2022-11-03T01:18:01.919Z,4.34
2022-11-03T01:19:01.906Z,4.26
2022-11-03T01:20:01.904Z,4.26
2022-11-03T01:21:01.880Z,4.24
2022-11-03T01:22:05.186Z,4.24
2022-11-03T01:23:03.095Z,4.28
2022-11-03T01:24:01.838Z,4.31
2022-11-03T01:25:01.824Z,4.25
2022-11-03T01:26:01.805Z,4.17
2022-11-03T01:27:01.793Z,4.16
2022-11-03T01:28:01.864Z,4.16
2022-11-03T01:29:01.770Z,4.16
2022-11-03T01:30:01.779Z,4.11
2022-11-03T01:31:01.750Z,4.04
2022-11-03T01:32:01.731Z,4.11
2022-11-03T01:33:01.721Z,4.21
2022-11-03T01:34:01.703Z,4.11
2022-11-03T01:35:01.697Z,4.10
2022-11-03T01:36:01.680Z,4.14
2022-11-03T01:37:01.663Z,4.06
2022-11-03T01:38:01.648Z,4.06
2022-11-03T01:39:01.646Z,3.99
2022-11-03T01:40:01.622Z,4.18
2022-11-03T01:41:01.610Z,4.02
2022-11-03T01:42:01.598Z,4.06
2022-11-03T01:43:01.584Z,3.98
2022-11-03T01:44:01.569Z,3.99
2022-11-03T01:45:01.566Z,3.92
2022-11-03T01:46:01.562Z,4.07
2022-11-03T01:47:01.533Z,4.02
2022-11-03T01:48:01.524Z,3.89
2022-11-03T01:49:01.511Z,3.92
2022-11-03T01:50:01.490Z,3.86
2022-11-03T01:51:01.543Z,4.02
2022-11-03T01:52:01.461Z,3.99
2022-11-03T01:53:01.454Z,4.13
2022-11-03T01:54:01.440Z,3.99
2022-11-03T01:55:01.422Z,4.00
2022-11-03T01:56:01.404Z,4.06
2022-11-03T01:57:01.395Z,4.06
2022-11-03T01:58:01.381Z,4.04
2022-11-03T01:59:01.369Z,4.10
2022-11-03T02:00:01.354Z,3.96
2022-11-03T02:01:01.427Z,4.18
2022-11-03T02:02:01.480Z,4.10
2022-11-03T02:03:01.325Z,4.17
2022-11-03T02:04:01.303Z,4.06
2022-11-03T02:05:01.294Z,4.08
2022-11-03T02:06:01.280Z,4.11
2022-11-03T02:07:01.266Z,4.13
2022-11-03T02:08:01.311Z,4.21
2022-11-03T02:09:01.239Z,4.24
2022-11-03T02:10:01.222Z,4.31
2022-11-03T02:11:01.206Z,4.38
2022-11-03T02:12:01.193Z,4.38
2022-11-03T02:13:01.183Z,4.36
2022-11-03T02:14:01.166Z,4.36
2022-11-03T02:15:01.176Z,4.50
2022-11-03T02:16:01.139Z,4.46
2022-11-03T02:17:01.127Z,4.51
2022-11-03T02:18:01.133Z,4.57
2022-11-03T02:19:01.106Z,4.56
2022-11-03T02:20:01.089Z,4.56
2022-11-03T02:21:01.080Z,4.68
2022-11-03T02:22:01.060Z,4.71
2022-11-03T02:23:01.055Z,4.62
2022-11-03T02:24:01.036Z,4.67
2022-11-03T02:25:01.028Z,4.50
2022-11-03T02:26:01.005Z,4.57
2022-11-03T02:27:00.995Z,4.50
2022-11-03T02:28:00.976Z,4.59
2022-11-03T02:29:00.969Z,4.53
2022-11-03T02:30:00.953Z,4.46
2022-11-03T02:31:00.938Z,4.50
2022-11-03T02:32:00.926Z,4.56
2022-11-03T02:33:00.918Z,4.47
2022-11-03T02:34:00.917Z,4.49
2022-11-03T02:35:00.890Z,4.46
2022-11-03T02:36:00.874Z,4.61
2022-11-03T02:37:00.862Z,4.54
2022-11-03T02:38:00.854Z,4.31
2022-11-03T02:39:00.836Z,4.39
2022-11-03T02:40:00.827Z,4.36
2022-11-03T02:41:00.814Z,4.47
2022-11-03T02:42:00.793Z,4.38
2022-11-03T02:43:00.781Z,4.44
2022-11-03T02:44:00.765Z,4.51
2022-11-03T02:45:00.754Z,4.44
2022-11-03T02:46:00.738Z,4.38
2022-11-03T02:47:00.735Z,4.50
2022-11-03T02:48:00.710Z,4.51
2022-11-03T02:49:00.705Z,4.49
2022-11-03T02:50:00.707Z,4.47
2022-11-03T02:51:00.679Z,4.59
2022-11-03T02:52:00.663Z,4.54
2022-11-03T02:53:00.691Z,4.36
2022-11-03T02:54:00.638Z,4.38
2022-11-03T02:55:00.622Z,4.39
2022-11-03T02:56:00.608Z,4.47
2022-11-03T02:57:00.596Z,4.46
2022-11-03T02:58:00.582Z,4.39
2022-11-03T02:59:00.566Z,4.49
2022-11-03T03:00:00.548Z,4.35
2022-11-03T03:01:00.649Z,4.46
2022-11-03T03:02:00.638Z,4.47
2022-11-03T03:03:00.514Z,4.42
2022-11-03T03:04:00.496Z,4.39
2022-11-03T03:05:00.486Z,4.47
2022-11-03T03:06:00.493Z,4.46
2022-11-03T03:07:00.463Z,4.44
2022-11-03T03:08:00.450Z,4.47
2022-11-03T03:09:00.436Z,4.53
2022-11-03T03:10:00.418Z,4.50
2022-11-03T03:11:00.409Z,4.56
2022-11-03T03:12:00.389Z,4.47
2022-11-03T03:13:00.379Z,4.54
2022-11-03T03:14:00.362Z,4.59
2022-11-03T03:15:00.359Z,4.47
2022-11-03T03:16:00.340Z,4.43
2022-11-03T03:17:00.328Z,4.54
2022-11-03T03:18:00.314Z,4.49
2022-11-03T03:19:00.304Z,4.38
2022-11-03T03:20:00.282Z,4.35
2022-11-03T03:21:00.282Z,4.35
2022-11-03T03:22:00.279Z,4.35
2022-11-03T03:23:00.244Z,4.35
2022-11-03T03:24:00.227Z,4.36
2022-11-03T03:25:00.219Z,4.38
2022-11-03T03:26:00.199Z,4.39
2022-11-03T03:27:00.191Z,4.32
2022-11-03T03:28:00.177Z,4.32
2022-11-03T03:29:00.164Z,4.43
2022-11-03T03:30:00.155Z,4.47
2022-11-03T03:31:00.152Z,4.44
2022-11-03T03:32:00.123Z,4.43
2022-11-03T03:33:00.114Z,4.47
2022-11-03T03:34:04.916Z,4.42
2022-11-03T03:35:01.114Z,4.44
2022-11-03T03:36:00.076Z,4.46
2022-11-03T03:37:00.067Z,4.49
2022-11-03T03:38:00.078Z,4.49
2022-11-03T03:39:00.031Z,4.35
2022-11-03T03:40:00.031Z,4.51
2022-11-03T03:41:00.000Z,4.49
2022-11-03T03:41:59.985Z,4.49
2022-11-03T03:42:59.972Z,4.46
2022-11-03T03:43:59.963Z,4.42
2022-11-03T03:44:59.952Z,4.43
2022-11-03T03:45:59.936Z,4.38
2022-11-03T03:46:59.927Z,4.49
2022-11-03T03:47:59.912Z,4.49
2022-11-03T03:48:59.898Z,4.39
2022-11-03T03:49:59.898Z,4.49
2022-11-03T03:50:59.870Z,4.36
2022-11-03T03:51:59.913Z,4.47
2022-11-03T03:52:59.846Z,4.32
2022-11-03T03:53:59.861Z,4.44
2022-11-03T03:54:59.815Z,4.43
2022-11-03T03:55:59.805Z,4.39
2022-11-03T03:56:59.790Z,4.39
2022-11-03T03:58:00.525Z,4.32
2022-11-03T03:58:59.758Z,4.36
2022-11-03T03:59:59.751Z,4.38
2022-11-03T04:00:59.797Z,4.42
2022-11-03T04:01:59.822Z,4.56
2022-11-03T04:02:59.717Z,4.49
2022-11-03T04:03:59.707Z,4.50
2022-11-03T04:04:59.686Z,4.47
2022-11-03T04:05:59.676Z,4.51
2022-11-03T04:06:59.665Z,4.67
2022-11-03T04:07:59.649Z,4.61
2022-11-03T04:08:59.634Z,4.71
2022-11-03T04:09:59.652Z,4.62
2022-11-03T04:10:59.604Z,4.72
2022-11-03T04:11:59.595Z,4.72
2022-11-03T04:12:59.573Z,4.54
2022-11-03T04:13:59.567Z,4.72
2022-11-03T04:14:59.555Z,4.62
2022-11-03T04:15:59.547Z,4.59
2022-11-03T04:16:59.729Z,4.61
2022-11-03T04:17:59.522Z,4.57
2022-11-03T04:18:59.495Z,4.50
2022-11-03T04:19:59.486Z,4.39
2022-11-03T04:20:59.471Z,4.39
2022-11-03T04:21:59.464Z,4.50
2022-11-03T04:22:59.447Z,4.42
2022-11-03T04:23:59.435Z,4.43
2022-11-03T04:24:59.417Z,4.42
2022-11-03T04:25:59.432Z,4.43
2022-11-03T04:26:59.397Z,4.43
2022-11-03T04:27:59.386Z,4.43
2022-11-03T04:28:59.376Z,4.44
2022-11-03T04:29:59.359Z,4.34
2022-11-03T04:30:59.425Z,4.49
2022-11-03T04:31:59.336Z,4.39
2022-11-03T04:32:59.314Z,4.38
2022-11-03T04:33:59.308Z,4.36
2022-11-03T04:34:59.286Z,4.38
2022-11-03T04:35:59.273Z,4.32
2022-11-03T04:36:59.254Z,4.28
2022-11-03T04:37:59.249Z,4.32
2022-11-03T04:38:59.228Z,4.32
2022-11-03T04:39:59.221Z,4.35
2022-11-03T04:40:59.205Z,4.25
2022-11-03T04:41:59.212Z,4.29
2022-11-03T04:42:59.180Z,4.25
2022-11-03T04:43:59.170Z,4.16
2022-11-03T04:44:59.152Z,4.18
2022-11-03T04:45:59.149Z,4.20
2022-11-03T04:46:59.120Z,4.10
2022-11-03T04:47:59.112Z,4.21
2022-11-03T04:48:59.098Z,4.11
2022-11-03T04:49:59.091Z,4.00
2022-11-03T04:50:59.079Z,4.11
2022-11-03T04:51:59.066Z,4.13
2022-11-03T04:52:59.048Z,4.14
2022-11-03T04:53:59.044Z,4.13
2022-11-03T04:54:59.020Z,4.10
2022-11-03T04:56:02.872Z,4.07
2022-11-03T04:57:00.030Z,4.16
2022-11-03T04:57:59.006Z,4.17
2022-11-03T04:58:58.966Z,4.17
2022-11-03T04:59:58.948Z,4.07
2022-11-03T05:00:58.965Z,4.07
2022-11-03T05:01:59.177Z,4.13
2022-11-03T05:02:58.910Z,3.92
2022-11-03T05:03:58.899Z,3.98
2022-11-03T05:04:58.883Z,3.99
2022-11-03T05:05:58.875Z,3.89
2022-11-03T05:06:58.858Z,3.95
2022-11-03T05:07:58.850Z,3.90
2022-11-03T05:08:58.834Z,3.92
2022-11-03T05:09:58.824Z,3.86
2022-11-03T05:10:58.804Z,3.84
2022-11-03T05:11:58.799Z,3.90
2022-11-03T05:12:58.778Z,3.98
2022-11-03T05:13:58.792Z,3.98
2022-11-03T05:14:59.219Z,3.84
2022-11-03T05:15:58.739Z,3.90
2022-11-03T05:16:58.721Z,3.92
2022-11-03T05:17:58.911Z,3.99
2022-11-03T05:18:58.699Z,4.00
2022-11-03T05:19:58.763Z,3.99
2022-11-03T05:20:58.669Z,4.02
2022-11-03T05:21:58.663Z,3.95
2022-11-03T05:22:58.642Z,4.04
2022-11-03T05:23:58.628Z,3.95
2022-11-03T05:24:58.615Z,3.95
2022-11-03T05:25:58.605Z,4.08
2022-11-03T05:26:58.589Z,4.06
2022-11-03T05:27:58.582Z,4.02
2022-11-03T05:28:58.563Z,4.02
2022-11-03T05:30:00.753Z,4.04
2022-11-03T05:30:58.540Z,4.00
2022-11-03T05:31:58.531Z,4.02
2022-11-03T05:32:58.515Z,4.00
2022-11-03T05:33:58.502Z,4.00
2022-11-03T05:34:58.485Z,3.92
2022-11-03T05:35:58.473Z,4.00
2022-11-03T05:36:58.458Z,3.99
2022-11-03T05:37:58.448Z,3.96
2022-11-03T05:38:58.435Z,3.92
2022-11-03T05:39:58.420Z,3.89
2022-11-03T05:40:58.403Z,3.92
2022-11-03T05:41:58.393Z,3.88
2022-11-03T05:42:58.373Z,3.90
2022-11-03T05:43:58.363Z,3.90
2022-11-03T05:44:58.344Z,3.81
2022-11-03T05:45:58.486Z,4.00
2022-11-03T05:46:58.324Z,3.84
2022-11-03T05:47:58.315Z,3.98
2022-11-03T05:48:58.297Z,3.84
2022-11-03T05:49:58.286Z,3.92
2022-11-03T05:50:58.268Z,3.81
2022-11-03T05:51:58.259Z,3.70
2022-11-03T05:52:58.241Z,3.78
2022-11-03T05:53:58.234Z,3.82
2022-11-03T05:54:58.215Z,3.68
2022-11-03T05:55:58.207Z,3.64
2022-11-03T05:56:58.187Z,3.67
2022-11-03T05:57:58.182Z,3.62
2022-11-03T05:58:58.160Z,3.64
2022-11-03T05:59:58.150Z,3.67
2022-11-03T06:00:58.131Z,3.49
2022-11-03T06:01:58.318Z,3.53
2022-11-03T06:02:58.206Z,3.49
2022-11-03T06:03:58.098Z,3.54
2022-11-03T06:04:58.077Z,3.30
2022-11-03T06:05:58.069Z,3.37
2022-11-03T06:06:58.061Z,3.31
2022-11-03T06:07:58.046Z,3.35
2022-11-03T06:08:58.031Z,3.46
2022-11-03T06:09:58.017Z,3.54
2022-11-03T06:10:58.004Z,3.52
2022-11-03T06:11:57.994Z,3.49
2022-11-03T06:12:57.976Z,3.53
2022-11-03T06:13:57.961Z,3.53
2022-11-03T06:14:57.948Z,3.53
2022-11-03T06:15:57.941Z,3.50
2022-11-03T06:16:57.920Z,3.54
2022-11-03T06:17:57.932Z,3.49
2022-11-03T06:18:57.896Z,3.59
2022-11-03T06:19:57.890Z,3.59
2022-11-03T06:20:57.870Z,3.59
2022-11-03T06:21:57.872Z,3.63
2022-11-03T06:22:57.848Z,3.75
2022-11-03T06:23:57.833Z,3.72
2022-11-03T06:24:57.819Z,3.75
2022-11-03T06:25:57.814Z,3.64
2022-11-03T06:26:57.786Z,3.64
2022-11-03T06:27:57.778Z,3.71
2022-11-03T06:28:57.764Z,3.60
2022-11-03T06:29:57.751Z,3.70
2022-11-03T06:30:57.734Z,3.60
2022-11-03T06:31:57.721Z,3.63
2022-11-03T06:32:57.708Z,3.71
2022-11-03T06:33:57.719Z,3.75
2022-11-03T06:34:57.724Z,3.82
2022-11-03T06:35:57.677Z,3.80
2022-11-03T06:36:57.657Z,3.71
2022-11-03T06:37:57.649Z,3.72
2022-11-03T06:38:57.630Z,3.62
2022-11-03T06:39:57.619Z,3.68
2022-11-03T06:40:57.603Z,3.71
2022-11-03T06:41:57.592Z,3.78
2022-11-03T06:42:57.573Z,3.72
2022-11-03T06:43:57.567Z,3.88
2022-11-03T06:44:57.555Z,3.81
2022-11-03T06:45:57.539Z,3.74
2022-11-03T06:46:57.521Z,3.82
2022-11-03T06:47:57.512Z,3.80
2022-11-03T06:48:57.500Z,3.86
2022-11-03T06:49:57.520Z,3.88
2022-11-03T06:50:57.471Z,3.96
2022-11-03T06:51:57.459Z,3.89
2022-11-03T06:52:57.458Z,3.93
2022-11-03T06:53:57.442Z,3.99
2022-11-03T06:54:57.412Z,4.06
2022-11-03T06:55:57.404Z,4.07
2022-11-03T06:56:57.387Z,4.07
2022-11-03T06:57:57.374Z,3.96
2022-11-03T06:58:57.361Z,4.14
2022-11-03T07:00:13.324Z,4.17
2022-11-03T07:01:03.014Z,4.20
2022-11-03T07:01:57.457Z,4.17
2022-11-03T07:02:57.314Z,4.21
2022-11-03T07:03:57.301Z,4.21
2022-11-03T07:04:57.286Z,4.24
2022-11-03T07:05:57.297Z,4.28
2022-11-03T07:06:57.259Z,4.38
2022-11-03T07:07:57.248Z,4.43
2022-11-03T07:08:57.228Z,4.34
2022-11-03T07:09:57.224Z,4.46
2022-11-03T07:10:57.201Z,4.38
2022-11-03T07:11:57.208Z,4.44
2022-11-03T07:12:57.176Z,4.32
2022-11-03T07:13:57.167Z,4.25
2022-11-03T07:14:57.180Z,4.28
2022-11-03T07:15:57.136Z,4.25
2022-11-03T07:16:57.126Z,4.34
2022-11-03T07:17:57.120Z,4.38
2022-11-03T07:18:57.097Z,4.50
2022-11-03T07:19:57.088Z,4.53
2022-11-03T07:20:57.068Z,4.49
2022-11-03T07:21:57.082Z,4.44
2022-11-03T07:22:57.043Z,4.42
2022-11-03T07:23:57.034Z,4.35
2022-11-03T07:24:57.019Z,4.29
2022-11-03T07:25:57.008Z,4.34
2022-11-03T07:26:56.990Z,4.39
2022-11-03T07:27:56.986Z,4.43
2022-11-03T07:28:56.968Z,4.38
2022-11-03T07:29:56.952Z,4.43
2022-11-03T07:30:56.938Z,4.50
2022-11-03T07:31:56.928Z,4.56
2022-11-03T07:32:56.920Z,4.65
2022-11-03T07:33:56.907Z,4.56
2022-11-03T07:34:56.889Z,4.56
2022-11-03T07:36:56.950Z,4.68
2022-11-03T07:37:56.872Z,4.65
2022-11-03T07:38:56.833Z,4.71
2022-11-03T07:39:56.823Z,4.79
2022-11-03T07:40:56.807Z,4.93
2022-11-03T07:41:56.801Z,4.94
2022-11-03T07:42:56.781Z,4.94
2022-11-03T07:43:56.775Z,5.05
2022-11-03T07:44:56.758Z,5.12
2022-11-03T07:45:56.751Z,4.99
2022-11-03T07:46:56.734Z,5.06
2022-11-03T07:47:59.308Z,5.04
2022-11-03T07:48:56.772Z,5.02
2022-11-03T07:49:56.698Z,4.99
2022-11-03T07:50:56.682Z,5.02
2022-11-03T07:51:56.672Z,4.86
2022-11-03T07:52:56.656Z,4.86
2022-11-03T07:53:56.669Z,4.83
2022-11-03T07:54:56.624Z,5.01
2022-11-03T07:55:56.821Z,5.11
2022-11-03T07:56:56.608Z,5.22
2022-11-03T07:57:56.583Z,5.29
2022-11-03T07:58:56.572Z,5.20
2022-11-03T07:59:56.559Z,5.20
2022-11-03T08:00:56.551Z,5.41
2022-11-03T08:01:56.709Z,5.45
2022-11-03T08:02:56.517Z,5.44
2022-11-03T08:03:56.502Z,5.52
2022-11-03T08:04:56.489Z,5.60
2022-11-03T08:05:56.470Z,5.65
2022-11-03T08:06:56.467Z,5.65
2022-11-03T08:07:56.443Z,5.78
2022-11-03T08:08:56.440Z,5.74
2022-11-03T08:09:56.439Z,5.75
2022-11-03T08:10:56.410Z,5.81
2022-11-03T08:11:56.393Z,5.80
2022-11-03T08:12:56.385Z,6.03
2022-11-03T08:13:56.372Z,5.93
2022-11-03T08:14:56.357Z,6.08
2022-11-03T08:15:56.349Z,6.03
2022-11-03T08:16:56.373Z,6.08
2022-11-03T08:17:56.468Z,5.98
2022-11-03T08:18:56.303Z,6.06
2022-11-03T08:19:56.282Z,6.14
2022-11-03T08:20:56.273Z,6.17
2022-11-03T08:21:56.257Z,6.13
2022-11-03T08:23:24.210Z,6.28
2022-11-03T08:23:57.459Z,6.28
2022-11-03T08:24:56.223Z,6.28
2022-11-03T08:25:56.249Z,6.14
2022-11-03T08:26:56.199Z,6.20
2022-11-03T08:27:56.185Z,6.05
2022-11-03T08:28:56.176Z,6.08
2022-11-03T08:29:56.155Z,6.01
2022-11-03T08:30:56.189Z,5.98
2022-11-03T08:31:56.122Z,6.11
2022-11-03T08:32:56.112Z,5.99
2022-11-03T08:33:56.146Z,5.87
2022-11-03T08:34:56.101Z,5.85
2022-11-03T08:35:56.085Z,5.69
2022-11-03T08:36:56.067Z,5.74
2022-11-03T08:37:56.069Z,5.70
2022-11-03T08:38:56.059Z,5.77
2022-11-03T08:39:56.020Z,5.73
2022-11-03T08:40:56.011Z,5.92
2022-11-03T08:41:56.052Z,5.99
2022-11-03T08:42:55.977Z,6.11
2022-11-03T08:43:55.963Z,6.13
2022-11-03T08:44:55.953Z,6.40
2022-11-03T08:45:55.940Z,6.35
2022-11-03T08:46:55.929Z,6.58
2022-11-03T08:47:55.911Z,6.61
2022-11-03T08:48:55.903Z,6.73
2022-11-03T08:49:55.886Z,6.78
2022-11-03T08:50:55.893Z,6.75
2022-11-03T08:51:55.859Z,6.73
2022-11-03T08:52:55.851Z,6.79
2022-11-03T08:53:55.834Z,6.82
2022-11-03T08:55:55.809Z,6.90
2022-11-03T08:56:55.796Z,6.97
2022-11-03T08:57:55.808Z,7.00
2022-11-03T08:58:55.772Z,6.75
2022-11-03T08:59:55.752Z,6.78
2022-11-03T09:00:55.739Z,6.82
2022-11-03T09:01:55.927Z,6.86
2022-11-03T09:02:55.719Z,6.94
2022-11-03T09:03:55.771Z,6.94
2022-11-03T09:04:55.693Z,6.93
2022-11-03T09:05:55.686Z,7.04
2022-11-03T09:06:55.657Z,7.12
2022-11-03T09:10:55.605Z,7.30
2022-11-03T09:11:55.592Z,7.42
2022-11-03T09:12:55.575Z,7.50
2022-11-03T09:13:55.584Z,7.71
2022-11-03T09:14:55.555Z,7.69
2022-11-03T09:15:55.538Z,7.81
2022-11-03T09:16:55.565Z,7.86
2022-11-03T09:17:55.514Z,8.03
2022-11-03T09:18:55.505Z,8.04
2022-11-03T09:19:55.488Z,8.25
2022-11-03T09:20:55.479Z,8.17
2022-11-03T09:21:55.460Z,8.09
2022-11-03T09:22:55.446Z,8.31
2022-11-03T09:23:55.429Z,8.31
2022-11-03T09:24:55.421Z,8.43
2022-11-03T09:25:55.402Z,8.43
2022-11-03T09:27:00.991Z,8.46
2022-11-03T09:27:56.407Z,8.61
2022-11-03T09:28:55.366Z,8.67
2022-11-03T09:30:12.171Z,8.82
2022-11-03T09:30:56.359Z,8.94
2022-11-03T09:31:55.328Z,8.82
2022-11-03T09:32:55.314Z,8.94
2022-11-03T09:33:55.301Z,8.96
2022-11-03T09:34:55.280Z,9.00
2022-11-03T09:35:55.268Z,9.17
2022-11-03T09:36:55.259Z,9.16
2022-11-03T09:37:55.240Z,9.16
2022-11-03T09:38:55.236Z,9.13
2022-11-03T09:39:55.218Z,9.15
2022-11-03T09:40:55.209Z,9.15
2022-11-03T09:41:58.452Z,8.97
2022-11-03T09:42:55.181Z,8.96
2022-11-03T09:43:55.162Z,8.96
2022-11-03T09:44:55.153Z,9.00
2022-11-03T09:45:55.155Z,8.96
2022-11-03T09:47:56.138Z,8.79
2022-11-03T09:48:55.094Z,8.89
2022-11-03T09:49:55.076Z,8.96
2022-11-03T09:50:55.066Z,8.88
2022-11-03T09:51:55.050Z,8.88
2022-11-03T09:52:55.038Z,8.83
2022-11-03T09:53:47.986Z,8.94
2022-11-03T09:53:55.024Z,8.83
2022-11-03T09:54:55.023Z,8.89
2022-11-03T09:55:55.014Z,8.97
2022-11-03T09:56:54.991Z,8.88
2022-11-03T09:57:55.012Z,8.85
2022-11-03T09:58:55.072Z,8.93
2022-11-03T09:59:54.945Z,8.94
2022-11-03T10:00:54.976Z,9.03
2022-11-03T10:01:55.138Z,9.04
2022-11-03T10:02:54.904Z,8.94
2022-11-03T10:03:54.889Z,8.98
2022-11-03T10:04:54.976Z,8.97
2022-11-03T10:05:54.866Z,8.86
2022-11-03T10:06:54.854Z,9.12
2022-11-03T10:08:54.847Z,8.89
2022-11-03T10:09:54.808Z,8.89
2022-11-03T10:10:54.802Z,8.89
2022-11-03T10:11:54.787Z,8.85
2022-11-03T10:12:54.773Z,9.06
2022-11-03T10:13:54.761Z,8.97
2022-11-03T10:14:54.743Z,9.03
2022-11-03T10:15:54.727Z,9.01
2022-11-03T10:16:54.714Z,9.16
2022-11-03T10:17:54.736Z,9.15
2022-11-03T10:18:54.687Z,9.17
2022-11-03T10:19:54.672Z,9.20
2022-11-03T10:20:54.662Z,9.35
2022-11-03T10:21:54.652Z,9.38
2022-11-03T10:22:54.653Z,9.44
2022-11-03T10:23:54.625Z,9.50
2022-11-03T10:24:54.614Z,9.59
2022-11-03T10:25:54.594Z,9.68
2022-11-03T10:26:54.589Z,9.68
2022-11-03T10:27:54.571Z,9.63
2022-11-03T10:28:54.561Z,9.86
2022-11-03T10:29:58.035Z,9.81
2022-11-03T10:31:11.791Z,9.88
2022-11-03T10:31:55.552Z,9.91
2022-11-03T10:32:54.505Z,9.98
2022-11-03T10:33:54.508Z,10.02
2022-11-03T10:34:54.480Z,10.02
2022-11-03T10:35:54.472Z,10.13
2022-11-03T10:36:54.448Z,10.20
2022-11-03T10:37:54.437Z,10.26
2022-11-03T10:38:54.430Z,10.26
2022-11-03T10:39:54.401Z,10.34
2022-11-03T10:40:54.535Z,10.49
2022-11-03T10:41:54.378Z,10.57
2022-11-03T10:42:54.373Z,10.52
2022-11-03T10:43:54.356Z,10.57
2022-11-03T10:44:54.346Z,10.66
2022-11-03T10:45:54.330Z,10.72
2022-11-03T10:46:54.317Z,10.87
2022-11-03T10:47:59.509Z,10.68
2022-11-03T10:48:55.357Z,10.86
2022-11-03T10:49:54.297Z,10.81
2022-11-03T10:50:54.262Z,10.80
2022-11-03T10:51:54.244Z,10.93
2022-11-03T10:52:54.239Z,11.06
2022-11-03T10:53:54.220Z,11.12
2022-11-03T10:54:54.208Z,11.09
2022-11-03T10:55:54.195Z,11.16
2022-11-03T10:56:54.314Z,11.17
2022-11-03T10:57:54.166Z,11.20
2022-11-03T10:58:54.199Z,11.23
2022-11-03T10:59:54.144Z,11.30
2022-11-03T11:00:54.201Z,11.17
2022-11-03T11:01:54.260Z,11.17
2022-11-03T11:02:54.112Z,11.16
2022-11-03T11:03:54.119Z,11.26
2022-11-03T11:04:54.156Z,11.13
2022-11-03T11:05:54.085Z,11.09
2022-11-03T11:06:54.049Z,11.17
2022-11-03T11:07:54.129Z,11.11
2022-11-03T11:08:59.663Z,11.20
2022-11-03T11:09:55.045Z,11.19
2022-11-03T11:10:54.001Z,11.12
2022-11-03T11:11:53.983Z,11.19
2022-11-03T11:12:53.971Z,11.20
2022-11-03T11:13:53.955Z,11.11
2022-11-03T11:14:53.952Z,11.21
2022-11-03T11:15:53.929Z,11.12
2022-11-03T11:16:53.922Z,11.19
2022-11-03T11:17:54.016Z,11.09
2022-11-03T11:18:53.898Z,11.20
2022-11-03T11:19:53.879Z,11.21
2022-11-03T11:20:53.871Z,11.28
2022-11-03T11:21:53.876Z,11.38
2022-11-03T11:22:53.847Z,11.36
2022-11-03T11:23:53.831Z,11.36
2022-11-03T11:24:53.819Z,11.42
2022-11-03T11:25:53.799Z,11.54
2022-11-03T11:26:53.784Z,11.59
2022-11-03T11:27:55.551Z,11.67
2022-11-03T11:28:53.763Z,11.74
2022-11-03T11:29:53.741Z,11.85
2022-11-03T11:30:53.735Z,11.88
2022-11-03T11:31:53.718Z,12.07
2022-11-03T11:32:53.713Z,12.07
2022-11-03T11:33:53.691Z,12.08
2022-11-03T11:34:54.027Z,12.16
2022-11-03T11:35:58.787Z,12.07
2022-11-03T11:36:53.649Z,12.11
2022-11-03T11:37:53.660Z,12.13
2022-11-03T11:38:53.621Z,12.15
2022-11-03T11:39:53.609Z,12.18
2022-11-03T11:40:53.596Z,12.23
2022-11-03T11:41:53.581Z,12.19
2022-11-03T11:42:53.575Z,12.29
2022-11-03T11:43:53.557Z,12.29
2022-11-03T11:44:53.548Z,12.16
2022-11-03T11:45:53.529Z,12.15
2022-11-03T11:46:53.516Z,12.08
2022-11-03T11:47:53.499Z,12.04
2022-11-03T11:48:53.486Z,12.08
2022-11-03T11:49:53.469Z,12.11
2022-11-03T11:50:53.476Z,12.12
2022-11-03T11:51:53.449Z,12.15
2022-11-03T11:52:53.432Z,12.21
2022-11-03T11:54:09.964Z,12.26
2022-11-03T11:54:54.428Z,12.22
2022-11-03T11:55:53.392Z,12.26
2022-11-03T11:56:53.386Z,12.31
2022-11-03T11:57:53.369Z,12.29
2022-11-03T11:58:53.356Z,12.18
2022-11-03T11:59:53.348Z,12.26
2022-11-03T12:00:53.329Z,12.21
2022-11-03T12:01:53.366Z,12.29
2022-11-03T12:02:53.303Z,12.22
2022-11-03T12:03:53.389Z,12.19
2022-11-03T12:04:53.272Z,12.12
2022-11-03T12:05:53.259Z,12.13
2022-11-03T12:06:53.246Z,12.18
2022-11-03T12:07:53.227Z,12.08
2022-11-03T12:08:53.223Z,12.11
2022-11-03T12:09:53.229Z,12.08
2022-11-03T12:10:53.221Z,12.15
2022-11-03T12:11:56.285Z,12.13
2022-11-03T12:12:53.172Z,12.11
2022-11-03T12:13:53.152Z,12.08
2022-11-03T12:14:53.139Z,12.13
2022-11-03T12:15:53.133Z,12.15
2022-11-03T12:16:53.110Z,12.11
2022-11-03T12:17:53.102Z,12.11
2022-11-03T12:18:53.081Z,12.19
2022-11-03T12:19:53.074Z,12.03
2022-11-03T12:20:53.060Z,12.07
2022-11-03T12:21:53.045Z,12.05
2022-11-03T12:22:53.030Z,12.03
2022-11-03T12:23:53.025Z,11.93
2022-11-03T12:24:53.005Z,12.00
2022-11-03T12:25:53.036Z,11.97
2022-11-03T12:26:52.976Z,12.03
2022-11-03T12:27:52.968Z,12.04
2022-11-03T12:28:52.950Z,12.05
2022-11-03T12:29:52.943Z,12.00
2022-11-03T12:30:52.981Z,12.07
2022-11-03T12:31:52.924Z,11.98
2022-11-03T12:32:52.895Z,11.98
2022-11-03T12:33:52.889Z,12.05
2022-11-03T12:34:52.865Z,11.96
2022-11-03T12:35:52.954Z,11.97
2022-11-03T12:36:56.112Z,12.07
2022-11-03T12:37:52.831Z,12.11
2022-11-03T12:38:52.811Z,12.08
2022-11-03T12:39:52.801Z,12.15
2022-11-03T12:40:52.792Z,12.16
2022-11-03T12:41:52.870Z,12.22
2022-11-03T12:42:52.761Z,12.26
2022-11-03T12:43:53.326Z,12.21
2022-11-03T12:44:52.740Z,12.18
2022-11-03T12:45:52.725Z,12.21
2022-11-03T12:46:52.704Z,12.23
2022-11-03T12:47:52.696Z,12.30
2022-11-03T12:48:52.676Z,12.21
2022-11-03T12:49:52.664Z,12.26
2022-11-03T12:50:52.649Z,12.33
2022-11-03T12:51:52.637Z,12.33
2022-11-03T12:52:52.628Z,12.18
2022-11-03T12:53:52.619Z,12.18
2022-11-03T12:54:52.642Z,12.23
2022-11-03T12:55:52.590Z,12.26
2022-11-03T12:56:52.569Z,12.30
2022-11-03T12:57:52.579Z,12.31
2022-11-03T12:58:52.541Z,12.25
2022-11-03T12:59:52.534Z,12.22
2022-11-03T13:00:55.126Z,12.16
2022-11-03T13:01:52.663Z,12.13
2022-11-03T13:02:52.661Z,12.12
2022-11-03T13:03:52.485Z,12.05
2022-11-03T13:04:52.462Z,12.12
2022-11-03T13:05:52.453Z,12.07
2022-11-03T13:06:52.438Z,12.05
2022-11-03T13:07:52.429Z,12.08
2022-11-03T13:08:53.326Z,12.01
2022-11-03T13:09:52.394Z,12.05
2022-11-03T13:10:52.397Z,11.97
2022-11-03T13:11:52.380Z,11.96
2022-11-03T13:12:52.374Z,12.01
2022-11-03T13:13:52.365Z,12.07
2022-11-03T13:14:52.329Z,12.04
2022-11-03T13:15:52.319Z,11.98
2022-11-03T13:16:52.301Z,12.00
2022-11-03T13:18:12.278Z,12.05
2022-11-03T13:18:53.291Z,12.12